Time;durP1;ratioP1;P1;durP2;ratioP2;P2;SDS_P1;SDS_P2;PMS_P1;PMS_P2;Temp;Humidity;BMP_temperature;BMP_pressure;BME280_temperature;BME280_humidity;BME280_pressure;Samples;Min_cycle;Max_cycle;Signal;HPM_P1;HPM_P2
2023/09/04 00:00:21;;;;;;;6.43;3.47;;;24.60;61.40;;;;;;6133922;28;80608;-65
2023/09/04 00:03:22;;;;;;;6.15;3.50;;;24.60;61.50;;;;;;6130515;28;81142;-64
2023/09/04 00:06:22;;;;;;;8.20;3.50;;;24.50;61.50;;;;;;6136941;28;81001;-64
2023/09/04 00:09:23;;;;;;;5.18;3.35;;;24.50;61.30;;;;;;6128475;28;80457;-66
2023/09/04 00:12:25;;;;;;;4.78;3.13;;;24.60;61.50;;;;;;6127878;28;80306;-64
2023/09/04 00:15:26;;;;;;;5.28;3.17;;;24.50;61.60;;;;;;6128905;28;80316;-60
2023/09/04 00:18:26;;;;;;;5.28;3.47;;;24.50;61.40;;;;;;6126991;28;82296;-55
2023/09/04 00:21:27;;;;;;;6.05;3.50;;;24.50;61.30;;;;;;6126951;28;80472;-59
2023/09/04 00:24:27;;;;;;;5.55;3.05;;;24.50;61.50;;;;;;6126355;28;80763;-60
2023/09/04 00:27:28;;;;;;;8.88;3.80;;;24.50;61.40;;;;;;6126978;28;80295;-58
2023/09/04 00:30:28;;;;;;;4.25;3.20;;;24.50;61.40;;;;;;6125768;28;81655;-57
2023/09/04 00:33:29;;;;;;;4.60;3.20;;;24.60;61.30;;;;;;6126232;28;80519;-58
2023/09/04 00:36:30;;;;;;;6.47;3.60;;;24.50;61.40;;;;;;6125117;28;82439;-58
2023/09/04 00:39:30;;;;;;;5.57;3.65;;;24.50;61.60;;;;;;6126279;28;83397;-58
2023/09/04 00:42:33;;;;;;;5.68;3.45;;;24.50;61.30;;;;;;6139316;28;80849;-58
2023/09/04 00:45:33;;;;;;;5.47;3.22;;;24.50;61.20;;;;;;6142231;28;80935;-59
2023/09/04 00:48:34;;;;;;;6.25;3.42;;;24.50;61.20;;;;;;6136162;28;80751;-58
2023/09/04 00:51:34;;;;;;;6.15;3.78;;;24.40;61.30;;;;;;6116630;28;80338;-57
2023/09/04 00:54:35;;;;;;;5.00;3.30;;;24.40;61.10;;;;;;6135305;28;81551;-57
2023/09/04 00:57:36;;;;;;;4.95;3.10;;;24.40;61.10;;;;;;6128221;28;80687;-59
2023/09/04 01:00:38;;;;;;;4.53;3.28;;;24.40;61.00;;;;;;6138020;28;81813;-58
2023/09/04 01:03:38;;;;;;;6.10;3.00;;;24.40;61.20;;;;;;6125095;28;80898;-58
2023/09/04 01:06:39;;;;;;;6.30;3.80;;;24.40;61.20;;;;;;6119049;28;82300;-59
2023/09/04 01:09:39;;;;;;;4.07;3.20;;;24.40;60.90;;;;;;6127970;28;80466;-54
2023/09/04 01:12:40;;;;;;;5.35;3.67;;;24.40;60.80;;;;;;6142559;28;82469;-58
2023/09/04 01:15:40;;;;;;;6.57;3.42;;;24.40;60.90;;;;;;6146181;28;81934;-58
2023/09/04 01:18:41;;;;;;;4.57;3.35;;;24.40;61.40;;;;;;6128893;28;83669;-59
2023/09/04 01:21:42;;;;;;;5.35;3.53;;;24.40;61.20;;;;;;6127899;28;80419;-58
2023/09/04 01:24:43;;;;;;;7.22;3.75;;;24.40;61.50;;;;;;6135481;28;80540;-58
2023/09/04 01:27:43;;;;;;;5.05;3.65;;;24.40;61.20;;;;;;6128609;28;82186;-57
2023/09/04 01:30:44;;;;;;;4.82;3.10;;;24.40;61.80;;;;;;6128561;28;82970;-59
2023/09/04 01:33:45;;;;;;;3.80;3.05;;;24.40;61.60;;;;;;6142231;28;80349;-59
2023/09/04 01:36:46;;;;;;;8.05;3.20;;;24.40;61.70;;;;;;6153232;28;81663;-60
2023/09/04 01:39:46;;;;;;;5.75;3.38;;;24.40;62.30;;;;;;6132681;28;81279;-59
2023/09/04 01:42:47;;;;;;;4.50;3.55;;;24.40;61.60;;;;;;6143612;28;80518;-59
2023/09/04 01:45:48;;;;;;;5.00;3.10;;;24.40;61.70;;;;;;6130499;28;81397;-60
2023/09/04 01:48:49;;;;;;;6.28;3.40;;;24.40;61.60;;;;;;6129635;28;86141;-66
2023/09/04 01:51:49;;;;;;;7.53;3.65;;;24.40;61.80;;;;;;6128636;28;82108;-67
2023/09/04 01:54:50;;;;;;;5.28;3.22;;;24.40;61.60;;;;;;6130915;28;81263;-68
2023/09/04 01:57:50;;;;;;;8.10;3.90;;;24.40;61.50;;;;;;6140795;28;80983;-68
2023/09/04 02:00:51;;;;;;;8.13;3.72;;;24.40;61.60;;;;;;6129765;28;83459;-67
2023/09/04 02:03:51;;;;;;;5.25;3.60;;;24.40;62.00;;;;;;6141218;28;81853;-68
2023/09/04 02:06:52;;;;;;;5.68;3.55;;;24.40;61.60;;;;;;6130487;28;80423;-68
2023/09/04 02:09:53;;;;;;;7.13;3.22;;;24.40;61.60;;;;;;6140445;28;83790;-67
2023/09/04 02:12:55;;;;;;;7.07;3.72;;;24.40;61.70;;;;;;6129551;28;83894;-68
2023/09/04 02:15:56;;;;;;;6.53;3.70;;;24.40;61.90;;;;;;6142024;28;82075;-67
2023/09/04 02:18:56;;;;;;;4.28;3.53;;;24.30;61.70;;;;;;6130033;28;83506;-64
2023/09/04 02:21:57;;;;;;;5.03;3.47;;;24.40;61.50;;;;;;6128946;28;80882;-64
2023/09/04 02:24:57;;;;;;;9.27;3.80;;;24.30;61.60;;;;;;6130369;28;81095;-65
2023/09/04 02:27:58;;;;;;;6.10;3.47;;;24.40;61.70;;;;;;6130488;28;80880;-63
2023/09/04 02:30:59;;;;;;;7.70;3.63;;;24.30;61.40;;;;;;6130471;28;80445;-63
2023/09/04 02:33:59;;;;;;;10.18;4.10;;;24.30;61.30;;;;;;6123387;28;80788;-63
2023/09/04 02:37:00;;;;;;;4.25;3.28;;;24.30;61.30;;;;;;6142604;28;80429;-63
2023/09/04 02:40:01;;;;;;;6.55;3.42;;;24.30;61.30;;;;;;6130125;28;80180;-63
2023/09/04 02:43:01;;;;;;;5.32;3.58;;;24.30;61.40;;;;;;6130202;28;81846;-58
2023/09/04 02:46:02;;;;;;;8.07;3.58;;;24.30;61.50;;;;;;6128841;28;80983;-58
2023/09/04 02:49:02;;;;;;;5.38;3.60;;;24.30;61.40;;;;;;6130780;28;80937;-58
2023/09/04 02:52:03;;;;;;;9.02;4.68;;;24.30;61.50;;;;;;6117198;28;80483;-57
2023/09/04 02:55:04;;;;;;;8.63;4.05;;;24.30;61.50;;;;;;6131031;28;81152;-56
2023/09/04 02:58:04;;;;;;;10.55;3.85;;;24.30;61.60;;;;;;6129494;28;80887;-57
2023/09/04 03:01:05;;;;;;;7.68;3.97;;;24.30;61.50;;;;;;6129846;28;83313;-53
2023/09/04 03:04:06;;;;;;;6.45;4.10;;;24.30;61.70;;;;;;6131473;28;80963;-59
2023/09/04 03:07:06;;;;;;;7.60;3.67;;;24.30;61.70;;;;;;6129780;28;80543;-58
2023/09/04 03:10:07;;;;;;;7.72;4.63;;;24.30;61.70;;;;;;6128547;28;82540;-58
2023/09/04 03:13:07;;;;;;;6.88;4.00;;;24.30;61.50;;;;;;6128833;28;82161;-55
2023/09/04 03:16:08;;;;;;;6.00;3.38;;;24.30;61.70;;;;;;6141255;28;80372;-55
2023/09/04 03:19:08;;;;;;;7.63;3.83;;;24.20;61.80;;;;;;6126787;28;83333;-58
2023/09/04 03:22:09;;;;;;;6.15;3.35;;;24.30;61.90;;;;;;6129958;28;80508;-56
2023/09/04 03:25:10;;;;;;;5.78;4.00;;;24.30;61.70;;;;;;6128780;28;81268;-58
2023/09/04 03:28:10;;;;;;;9.05;4.13;;;24.30;61.80;;;;;;6127673;28;87734;-58
2023/09/04 03:31:12;;;;;;;10.55;4.18;;;24.30;62.40;;;;;;6124636;28;82059;-58
2023/09/04 03:34:14;;;;;;;8.27;4.20;;;24.30;62.20;;;;;;6125003;28;81252;-57
2023/09/04 03:37:15;;;;;;;7.05;4.22;;;24.30;62.10;;;;;;6138570;28;84927;-58
2023/09/04 03:40:16;;;;;;;5.93;4.32;;;24.30;62.10;;;;;;6130400;28;80229;-58
2023/09/04 03:43:16;;;;;;;5.13;3.92;;;24.30;62.40;;;;;;6138583;28;81830;-58
2023/09/04 03:46:17;;;;;;;5.38;4.20;;;24.30;62.40;;;;;;6142653;28;81015;-59
2023/09/04 03:49:17;;;;;;;6.85;3.63;;;24.20;62.20;;;;;;6139335;28;82054;-59
2023/09/04 03:52:18;;;;;;;7.60;4.10;;;24.30;62.60;;;;;;6114034;28;82334;-59
2023/09/04 03:55:18;;;;;;;4.72;3.70;;;24.20;62.40;;;;;;6135493;28;83702;-66
2023/09/04 03:58:19;;;;;;;5.85;3.97;;;24.20;62.30;;;;;;6128712;28;83427;-67
2023/09/04 04:01:19;;;;;;;8.32;4.57;;;24.20;62.50;;;;;;6137717;28;80904;-66
2023/09/04 04:04:20;;;;;;;5.05;3.75;;;24.30;62.50;;;;;;6116396;28;81858;-65
2023/09/04 04:07:20;;;;;;;11.00;3.90;;;24.30;62.20;;;;;;6130523;28;83435;-67
2023/09/04 04:10:21;;;;;;;6.68;4.03;;;24.30;62.20;;;;;;6122613;28;81113;-64
2023/09/04 04:13:21;;;;;;;7.10;3.83;;;24.30;62.30;;;;;;6128951;28;80602;-60
2023/09/04 04:16:22;;;;;;;4.63;4.00;;;24.20;62.30;;;;;;6119480;28;81045;-61
2023/09/04 04:19:23;;;;;;;7.38;4.10;;;24.20;62.50;;;;;;6106306;28;86157;-59
2023/09/04 04:22:23;;;;;;;6.50;4.03;;;24.20;62.40;;;;;;6120243;28;82164;-59
2023/09/04 04:25:24;;;;;;;8.55;3.78;;;24.20;62.40;;;;;;6125076;28;82360;-61
2023/09/04 04:28:24;;;;;;;6.95;4.15;;;24.20;62.40;;;;;;6122098;28;83502;-59
2023/09/04 04:31:25;;;;;;;5.07;3.63;;;24.20;62.60;;;;;;6120416;28;83253;-60
2023/09/04 04:34:26;;;;;;;6.22;3.72;;;24.20;62.70;;;;;;6103886;28;83358;-58
2023/09/04 04:37:26;;;;;;;10.27;4.93;;;24.30;63.00;;;;;;6134314;28;81723;-59
2023/09/04 04:40:27;;;;;;;6.35;3.78;;;24.20;63.30;;;;;;6126251;28;80364;-56
2023/09/04 04:43:27;;;;;;;10.15;3.95;;;24.20;63.00;;;;;;6132871;28;81349;-55
2023/09/04 04:46:29;;;;;;;7.13;3.60;;;24.20;63.40;;;;;;6129777;28;83524;-61
2023/09/04 04:49:30;;;;;;;8.20;3.90;;;24.20;63.80;;;;;;6125529;28;83933;-58
2023/09/04 04:52:31;;;;;;;9.98;3.90;;;24.30;64.10;;;;;;6117142;28;83378;-57
2023/09/04 04:55:32;;;;;;;6.00;3.70;;;24.30;63.60;;;;;;6122737;28;83567;-59
2023/09/04 04:58:32;;;;;;;12.10;4.20;;;24.30;64.00;;;;;;6128960;28;83154;-58
2023/09/04 05:01:33;;;;;;;11.35;4.03;;;24.30;64.00;;;;;;6125263;28;81981;-57
2023/09/04 05:04:35;;;;;;;9.13;3.83;;;24.30;63.80;;;;;;6124420;28;82685;-56
2023/09/04 05:07:37;;;;;;;6.55;3.70;;;24.30;63.50;;;;;;6127587;28;80260;-58
2023/09/04 05:10:38;;;;;;;7.53;4.07;;;24.20;63.40;;;;;;6110012;28;83842;-66
2023/09/04 05:13:39;;;;;;;7.63;4.20;;;24.30;63.80;;;;;;6124494;28;83514;-65
2023/09/04 05:16:40;;;;;;;6.90;4.00;;;24.30;63.50;;;;;;6137503;28;81838;-64
2023/09/04 05:19:40;;;;;;;11.40;3.92;;;24.30;63.70;;;;;;6124345;28;83030;-65
2023/09/04 05:22:41;;;;;;;5.43;3.78;;;24.30;63.80;;;;;;6126165;28;80650;-64
2023/09/04 05:25:41;;;;;;;10.07;4.28;;;24.30;63.70;;;;;;6121528;28;83073;-64
2023/09/04 05:28:42;;;;;;;12.23;4.00;;;24.30;63.20;;;;;;6121564;28;83018;-60
2023/09/04 05:31:42;;;;;;;14.35;3.70;;;24.30;63.30;;;;;;6115813;28;82502;-61
2023/09/04 05:34:43;;;;;;;5.88;4.03;;;24.30;63.50;;;;;;6109063;28;83313;-60
2023/09/04 05:37:43;;;;;;;8.80;4.10;;;24.30;63.60;;;;;;6127621;28;80830;-61
2023/09/04 05:40:44;;;;;;;9.40;4.57;;;24.20;63.30;;;;;;6123985;28;81272;-62
2023/09/04 05:43:44;;;;;;;6.53;3.90;;;24.20;62.70;;;;;;6125989;28;80800;-61
2023/09/04 05:46:45;;;;;;;7.20;4.03;;;24.20;62.50;;;;;;6120004;28;81323;-58
2023/09/04 05:49:46;;;;;;;7.72;3.75;;;24.20;62.90;;;;;;6126804;28;80897;-59
2023/09/04 05:52:46;;;;;;;9.10;4.63;;;24.20;63.10;;;;;;6118837;28;81997;-57
2023/09/04 05:55:47;;;;;;;17.08;4.63;;;24.00;61.90;;;;;;6125915;28;80761;-58
2023/09/04 05:58:47;;;;;;;9.82;5.30;;;23.90;62.60;;;;;;6090457;28;82162;-59
2023/09/04 06:01:48;;;;;;;10.38;4.68;;;23.80;62.20;;;;;;6016176;28;82729;-59
2023/09/04 06:04:48;;;;;;;8.73;5.03;;;23.60;62.60;;;;;;6009937;28;82021;-59
2023/09/04 06:07:49;;;;;;;8.57;4.03;;;23.60;62.80;;;;;;6008095;28;82067;-64
2023/09/04 06:10:49;;;;;;;11.52;4.53;;;23.70;62.90;;;;;;6011092;28;81504;-61
2023/09/04 06:13:50;;;;;;;13.23;4.35;;;23.70;62.70;;;;;;6006415;28;86879;-59
2023/09/04 06:16:50;;;;;;;9.52;3.92;;;23.70;63.00;;;;;;6015130;28;81867;-59
2023/09/04 06:19:51;;;;;;;8.02;4.30;;;23.80;63.00;;;;;;6003278;28;82551;-59
2023/09/04 06:22:52;;;;;;;9.95;4.32;;;23.80;63.40;;;;;;6006552;28;81929;-62
2023/09/04 06:25:52;;;;;;;8.85;3.97;;;23.80;63.00;;;;;;6010086;28;81822;-64
2023/09/04 06:28:53;;;;;;;10.75;4.22;;;23.90;62.90;;;;;;6007272;28;82843;-71
2023/09/04 06:31:53;;;;;;;6.88;4.68;;;23.90;63.00;;;;;;6001290;28;80354;-68
2023/09/04 06:34:54;;;;;;;14.30;5.43;;;23.90;63.00;;;;;;6023576;28;80924;-68
2023/09/04 06:37:54;;;;;;;16.08;6.75;;;23.90;63.00;;;;;;6011314;28;80808;-60
2023/09/04 06:40:58;;;;;;;15.88;6.22;;;23.80;63.10;;;;;;6006889;28;80789;-63
2023/09/04 06:43:59;;;;;;;17.73;7.47;;;23.90;63.70;;;;;;6009904;28;80677;-64
2023/09/04 06:46:59;;;;;;;12.68;5.72;;;24.00;63.60;;;;;;6011327;28;82401;-65
2023/09/04 06:50:01;;;;;;;12.13;5.85;;;24.00;62.80;;;;;;6014038;28;81908;-65
2023/09/04 06:53:01;;;;;;;9.02;4.97;;;24.00;62.80;;;;;;6008175;28;82208;-61
2023/09/04 06:56:02;;;;;;;7.60;4.35;;;24.00;62.00;;;;;;6010498;28;82141;-60
2023/09/04 06:59:04;;;;;;;11.48;4.70;;;24.10;61.90;;;;;;6007474;28;82057;-51
2023/09/04 07:02:05;;;;;;;7.22;4.05;;;24.00;61.70;;;;;;6011155;28;83441;-53
2023/09/04 07:05:07;;;;;;;10.30;4.28;;;23.90;61.90;;;;;;6005379;28;83399;-50
2023/09/04 07:08:07;;;;;;;12.55;4.22;;;23.90;62.20;;;;;;6010029;28;83024;-49
2023/09/04 07:11:08;;;;;;;8.88;4.10;;;23.90;62.00;;;;;;6010290;28;81848;-49
2023/09/04 07:14:09;;;;;;;8.60;4.32;;;23.90;61.60;;;;;;6004213;28;82025;-49
2023/09/04 07:17:10;;;;;;;12.43;3.67;;;23.90;61.50;;;;;;6018434;28;82997;-61
2023/09/04 07:20:14;;;;;;;9.90;3.92;;;23.80;61.40;;;;;;6005519;28;82151;-66
2023/09/04 07:23:15;;;;;;;11.02;3.65;;;23.90;61.50;;;;;;6007067;28;81512;-64
2023/09/04 07:26:15;;;;;;;9.13;3.53;;;23.90;62.10;;;;;;6006269;28;80644;-65
2023/09/04 07:29:16;;;;;;;8.65;3.55;;;24.00;62.00;;;;;;6006615;28;80526;-62
2023/09/04 07:32:16;;;;;;;5.70;3.33;;;24.00;62.10;;;;;;5993596;28;81349;-62
2023/09/04 07:35:17;;;;;;;7.97;3.63;;;24.10;62.10;;;;;;6015242;28;80390;-63
2023/09/04 07:38:18;;;;;;;8.30;3.55;;;24.10;61.80;;;;;;6019567;28;82203;-60
2023/09/04 07:41:18;;;;;;;6.25;3.15;;;24.10;61.50;;;;;;6008643;28;83160;-62
2023/09/04 07:44:19;;;;;;;5.57;2.92;;;24.10;61.10;;;;;;6007908;28;82240;-62
2023/09/04 07:47:19;;;;;;;6.70;3.03;;;24.10;60.90;;;;;;6004944;28;81575;-62
2023/09/04 07:50:20;;;;;;;9.73;3.47;;;24.10;60.90;;;;;;6004477;28;80826;-63
2023/09/04 07:53:21;;;;;;;5.38;3.45;;;24.10;60.90;;;;;;5996730;28;81493;-62
2023/09/04 07:56:23;;;;;;;6.53;2.97;;;24.10;61.40;;;;;;6010368;28;82270;-61
2023/09/04 07:59:23;;;;;;;6.60;3.38;;;24.20;60.70;;;;;;6072249;28;80306;-63
2023/09/04 08:02:24;;;;;;;7.10;2.92;;;24.20;60.50;;;;;;6128388;28;80888;-63
2023/09/04 08:05:24;;;;;;;7.63;3.55;;;24.20;60.00;;;;;;6126812;28;80488;-63
2023/09/04 08:08:24;;;;;;;7.18;4.03;;;24.10;59.90;;;;;;6127474;28;80978;-62
2023/09/04 08:11:25;;;;;;;7.57;4.05;;;24.20;59.80;;;;;;6128480;28;80564;-63
2023/09/04 08:14:25;;;;;;;10.43;4.43;;;24.10;59.80;;;;;;6129528;28;81020;-51
2023/09/04 08:17:26;;;;;;;5.38;3.28;;;24.10;60.10;;;;;;6138922;28;80882;-51
2023/09/04 08:20:27;;;;;;;8.73;3.42;;;24.10;59.90;;;;;;6151673;28;80795;-48
2023/09/04 08:23:27;;;;;;;6.32;3.10;;;24.00;60.20;;;;;;6129389;28;81009;-50
2023/09/04 08:26:29;;;;;;;6.35;3.17;;;23.70;60.60;;;;;;6127458;28;80870;-53
2023/09/04 08:29:30;;;;;;;5.72;3.42;;;23.70;60.40;;;;;;6127138;28;83015;-49
2023/09/04 08:32:30;;;;;;;7.07;3.58;;;23.70;60.80;;;;;;6118609;28;81974;-56
2023/09/04 08:35:31;;;;;;;6.57;3.20;;;23.30;61.50;;;;;;6139083;28;80985;-58
2023/09/04 08:38:31;;;;;;;7.05;3.00;;;23.40;62.30;;;;;;6104132;28;83923;-57
2023/09/04 08:41:32;;;;;;;5.68;3.38;;;23.70;62.00;;;;;;6105086;28;82587;-54
2023/09/04 08:44:32;;;;;;;6.97;3.53;;;23.80;61.20;;;;;;6101722;28;84219;-54
2023/09/04 08:47:33;;;;;;;8.20;3.45;;;24.00;60.70;;;;;;6108224;28;85241;-57
2023/09/04 08:50:33;;;;;;;6.60;3.30;;;23.90;60.60;;;;;;6112023;28;81785;-56
2023/09/04 08:53:34;;;;;;;8.70;4.38;;;23.90;61.00;;;;;;6118493;28;80482;-55
2023/09/04 08:56:34;;;;;;;4.50;3.03;;;23.90;60.70;;;;;;6110408;28;84916;-53
2023/09/04 08:59:35;;;;;;;5.93;3.40;;;24.00;60.40;;;;;;6104270;28;80875;-56
2023/09/04 09:02:35;;;;;;;8.73;3.67;;;24.00;60.10;;;;;;6107559;28;80689;-55
2023/09/04 09:05:36;;;;;;;5.55;3.70;;;24.00;60.20;;;;;;6095723;28;84299;-56
2023/09/04 09:08:36;;;;;;;6.72;3.20;;;23.80;60.50;;;;;;6116054;28;84278;-53
2023/09/04 09:11:39;;;;;;;5.07;3.30;;;23.90;61.10;;;;;;6118010;28;80536;-56
2023/09/04 09:14:39;;;;;;;9.23;3.83;;;24.00;61.20;;;;;;6123681;28;83643;-54
2023/09/04 09:17:40;;;;;;;5.93;3.42;;;24.00;60.70;;;;;;6109160;28;82410;-56
2023/09/04 09:20:42;;;;;;;6.93;3.58;;;24.00;60.80;;;;;;6105539;28;82444;-56
2023/09/04 09:23:42;;;;;;;8.15;3.65;;;24.00;61.00;;;;;;6124475;28;87324;-55
2023/09/04 09:26:43;;;;;;;8.40;3.55;;;23.80;61.20;;;;;;6121434;28;85774;-52
2023/09/04 09:29:43;;;;;;;5.70;3.40;;;23.80;60.80;;;;;;6123431;28;86396;-54
2023/09/04 09:32:44;;;;;;;5.95;3.53;;;23.50;61.40;;;;;;6116842;28;81695;-52
2023/09/04 09:35:45;;;;;;;8.20;3.88;;;23.50;62.30;;;;;;6124721;28;80918;-54
2023/09/04 09:38:45;;;;;;;8.77;3.70;;;23.50;62.60;;;;;;6126792;28;81864;-54
2023/09/04 09:41:46;;;;;;;7.03;3.53;;;23.60;62.60;;;;;;6128691;28;81699;-52
2023/09/04 09:44:47;;;;;;;6.53;3.50;;;23.80;62.10;;;;;;6121301;28;80925;-53
2023/09/04 09:47:48;;;;;;;5.78;4.03;;;23.90;62.60;;;;;;6124628;28;82486;-54
2023/09/04 09:50:48;;;;;;;9.05;4.07;;;23.70;62.10;;;;;;6126631;28;81669;-52
2023/09/04 09:53:49;;;;;;;13.45;4.88;;;23.70;62.30;;;;;;6127600;28;80777;-51
2023/09/04 09:56:49;;;;;;;7.88;3.70;;;23.50;62.90;;;;;;6125116;28;81876;-54
2023/09/04 09:59:50;;;;;;;10.25;5.07;;;23.50;63.50;;;;;;6127925;28;80887;-55
2023/09/04 10:02:50;;;;;;;11.75;4.78;;;23.60;62.80;;;;;;6127254;28;80869;-52
2023/09/04 10:05:50;;;;;;;10.82;4.68;;;23.40;63.30;;;;;;6132917;28;80664;-53
2023/09/04 10:08:51;;;;;;;7.82;3.78;;;23.20;63.80;;;;;;6126909;28;80567;-51
2023/09/04 10:11:52;;;;;;;14.02;4.78;;;23.40;64.20;;;;;;6127130;28;80130;-53
2023/09/04 10:14:52;;;;;;;8.70;3.78;;;23.20;63.70;;;;;;6126358;28;84739;-50
2023/09/04 10:17:53;;;;;;;7.53;4.03;;;23.20;63.80;;;;;;6129679;28;80453;-49
2023/09/04 10:20:54;;;;;;;11.13;4.28;;;23.30;63.90;;;;;;6130488;28;81606;-49
2023/09/04 10:23:54;;;;;;;10.15;4.53;;;23.50;63.90;;;;;;6131415;28;80487;-62
2023/09/04 10:26:55;;;;;;;10.45;4.35;;;23.60;64.10;;;;;;6133945;28;81179;-63
2023/09/04 10:29:55;;;;;;;8.68;4.22;;;23.60;64.10;;;;;;6135320;28;80588;-63
2023/09/04 10:32:56;;;;;;;12.38;4.32;;;23.60;63.90;;;;;;6128219;28;83965;-64
2023/09/04 10:35:56;;;;;;;10.52;3.90;;;23.70;64.10;;;;;;6106369;28;84495;-65
2023/09/04 10:38:57;;;;;;;8.57;3.95;;;23.70;63.40;;;;;;6125400;28;80987;-65
2023/09/04 10:41:58;;;;;;;6.38;4.10;;;23.70;63.20;;;;;;6130606;28;82686;-65
2023/09/04 10:44:58;;;;;;;7.15;3.75;;;23.80;62.90;;;;;;6130135;28;81389;-65
2023/09/04 10:48:01;;;;;;;8.57;3.97;;;24.00;62.80;;;;;;6128447;28;83897;-64
2023/09/04 10:51:01;;;;;;;8.32;3.70;;;24.10;62.70;;;;;;6111880;28;80847;-64
2023/09/04 10:54:02;;;;;;;17.00;4.53;;;24.10;63.00;;;;;;6127983;28;81429;-65
2023/09/04 10:57:06;;;;;;;6.25;3.20;;;24.10;62.90;;;;;;6131436;28;80805;-64
2023/09/04 11:00:07;;;;;;;9.90;4.13;;;24.20;62.90;;;;;;6126259;28;81538;-64
2023/09/04 11:03:07;;;;;;;6.95;3.67;;;24.20;62.70;;;;;;6137405;28;81871;-64
2023/09/04 11:06:08;;;;;;;7.35;3.42;;;24.30;62.30;;;;;;6135925;28;80596;-63
2023/09/04 11:09:08;;;;;;;6.75;3.75;;;24.30;62.20;;;;;;6131049;28;80325;-64
2023/09/04 11:12:10;;;;;;;6.72;3.78;;;24.30;62.20;;;;;;6138732;28;80556;-63
2023/09/04 11:15:11;;;;;;;10.63;4.18;;;24.10;61.90;;;;;;6133245;28;80097;-63
2023/09/04 11:18:11;;;;;;;6.78;4.07;;;24.00;62.60;;;;;;6114999;28;85174;-63
2023/09/04 11:21:12;;;;;;;9.38;3.92;;;23.80;63.40;;;;;;6122537;28;80663;-63
2023/09/04 11:24:13;;;;;;;5.60;3.78;;;23.90;63.80;;;;;;6127568;28;80776;-64
2023/09/04 11:27:13;;;;;;;7.13;3.63;;;24.10;63.20;;;;;;6130737;28;80919;-64
2023/09/04 11:30:14;;;;;;;11.55;4.00;;;24.20;62.90;;;;;;6123561;28;80390;-64
2023/09/04 11:33:14;;;;;;;8.48;3.65;;;24.30;62.60;;;;;;6123670;28;82991;-64
2023/09/04 11:36:15;;;;;;;5.72;3.33;;;24.30;62.60;;;;;;6105772;28;80938;-54
2023/09/04 11:39:15;;;;;;;6.47;3.47;;;24.40;62.00;;;;;;6104086;28;80786;-54
2023/09/04 11:42:16;;;;;;;6.20;3.22;;;24.40;61.70;;;;;;6104056;28;81407;-54
2023/09/04 11:45:16;;;;;;;11.38;3.85;;;24.60;61.30;;;;;;6097682;28;80568;-54
2023/09/04 11:48:17;;;;;;;9.18;3.72;;;24.60;61.60;;;;;;6096951;28;82237;-49
2023/09/04 11:51:17;;;;;;;6.30;3.40;;;24.60;61.60;;;;;;6102120;28;82532;-54
2023/09/04 11:54:36;;;;;;;8.77;4.15;;;24.60;61.40;;;;;;6090943;28;80600;-62
2023/09/04 11:57:36;;;;;;;9.68;3.58;;;24.60;61.20;;;;;;6130104;28;84833;-63
2023/09/04 12:00:37;;;;;;;9.15;3.60;;;24.60;61.10;;;;;;6131574;28;80778;-65
2023/09/04 12:03:37;;;;;;;5.20;3.47;;;24.60;60.90;;;;;;6108348;28;80645;-63
2023/09/04 12:06:38;;;;;;;6.03;3.53;;;24.70;60.70;;;;;;6116874;28;82817;-62
2023/09/04 12:09:38;;;;;;;7.95;3.72;;;24.60;60.20;;;;;;6128060;28;80499;-63
2023/09/04 12:12:39;;;;;;;6.03;3.17;;;24.60;59.80;;;;;;6124689;28;80809;-62
2023/09/04 12:15:39;;;;;;;6.82;3.88;;;24.70;59.50;;;;;;6119941;28;80782;-62
2023/09/04 12:18:40;;;;;;;6.57;3.33;;;24.70;59.90;;;;;;6124436;28;82022;-64
2023/09/04 12:21:40;;;;;;;7.03;3.50;;;24.70;59.70;;;;;;6126755;28;81836;-64
2023/09/04 12:24:41;;;;;;;8.65;3.95;;;24.70;59.90;;;;;;6128057;28;83512;-62
2023/09/04 12:27:41;;;;;;;8.27;3.58;;;24.70;59.70;;;;;;6128215;28;81879;-63
2023/09/04 12:30:50;;;;;;;6.07;3.83;;;24.70;59.50;;;;;;6126787;28;81044;-54
2023/09/04 12:33:51;;;;;;;7.85;4.35;;;24.60;59.40;;;;;;6108057;28;87384;-53
2023/09/04 12:36:52;;;;;;;5.65;3.55;;;24.60;59.10;;;;;;6127702;28;81085;-53
2023/09/04 12:39:52;;;;;;;3.90;3.22;;;24.60;59.10;;;;;;6126281;28;81583;-56
2023/09/04 12:42:53;;;;;;;8.57;3.45;;;24.60;59.30;;;;;;6133907;28;80799;-56
2023/09/04 12:45:53;;;;;;;5.90;3.15;;;24.50;59.30;;;;;;6128321;28;84035;-52
2023/09/04 12:48:54;;;;;;;5.63;3.22;;;24.60;59.00;;;;;;6125254;28;83641;-57
2023/09/04 12:51:54;;;;;;;4.50;3.53;;;24.60;59.00;;;;;;6114473;28;80860;-56
2023/09/04 12:54:55;;;;;;;5.70;3.60;;;24.60;58.70;;;;;;6116531;28;81875;-57
2023/09/04 12:57:55;;;;;;;4.53;3.50;;;24.60;58.60;;;;;;6130714;28;80504;-56
2023/09/04 13:00:56;;;;;;;6.82;3.75;;;24.60;58.40;;;;;;6126214;28;80889;-55
2023/09/04 13:03:56;;;;;;;10.85;4.82;;;24.60;58.30;;;;;;6126247;28;82026;-48
2023/09/04 13:06:57;;;;;;;6.43;3.90;;;24.60;58.00;;;;;;6128331;28;80718;-56
2023/09/04 13:09:57;;;;;;;6.15;3.85;;;24.60;58.10;;;;;;6129451;28;81257;-53
2023/09/04 13:12:58;;;;;;;4.78;4.07;;;24.50;57.80;;;;;;6129383;28;80459;-57
2023/09/04 13:15:58;;;;;;;5.75;4.13;;;24.50;57.80;;;;;;6142089;28;80751;-57
2023/09/04 13:18:59;;;;;;;5.15;3.80;;;24.50;57.70;;;;;;6132089;28;81642;-56
2023/09/04 13:21:59;;;;;;;5.75;4.15;;;24.60;57.80;;;;;;6141655;28;81397;-54
2023/09/04 13:25:00;;;;;;;6.75;4.82;;;24.60;57.90;;;;;;6133747;28;80851;-64
2023/09/04 13:28:01;;;;;;;5.10;3.95;;;24.50;57.70;;;;;;6131712;28;80427;-65
2023/09/04 13:31:01;;;;;;;4.70;4.20;;;24.60;57.60;;;;;;6107134;28;86319;-64
2023/09/04 13:34:02;;;;;;;4.57;4.00;;;24.60;57.70;;;;;;6126207;28;82392;-66
2023/09/04 13:37:02;;;;;;;11.82;4.68;;;24.60;57.80;;;;;;6123848;28;80803;-66
2023/09/04 13:40:06;;;;;;;7.38;3.75;;;24.60;58.40;;;;;;6124224;28;82527;-66
2023/09/04 13:43:07;;;;;;;5.32;4.20;;;24.60;58.40;;;;;;6110408;28;82730;-65
2023/09/04 13:46:07;;;;;;;5.43;3.90;;;24.60;59.30;;;;;;6127134;28;81013;-65
2023/09/04 13:49:08;;;;;;;4.38;3.63;;;24.60;58.40;;;;;;6129373;28;80634;-65
2023/09/04 13:52:12;;;;;;;7.53;3.20;;;24.60;58.40;;;;;;6121577;28;84781;-65
2023/09/04 13:55:14;;;;;;;5.50;3.67;;;24.60;58.40;;;;;;6120716;28;81877;-65
2023/09/04 13:58:15;;;;;;;6.50;3.88;;;24.60;59.00;;;;;;6124077;28;81438;-68
2023/09/04 14:01:15;;;;;;;4.82;3.60;;;24.70;60.20;;;;;;6128051;28;80551;-61
2023/09/04 14:04:16;;;;;;;3.75;3.35;;;24.70;58.90;;;;;;6128402;28;81404;-66
2023/09/04 14:07:16;;;;;;;4.57;3.90;;;24.70;59.20;;;;;;6129009;28;83770;-64
2023/09/04 14:10:17;;;;;;;5.63;4.18;;;24.80;57.90;;;;;;6125323;28;80595;-65
2023/09/04 14:13:19;;;;;;;7.00;4.28;;;24.80;57.30;;;;;;6129041;28;81439;-64
2023/09/04 14:16:20;;;;;;;7.10;3.97;;;24.70;56.20;;;;;;6132997;28;81091;-64
2023/09/04 14:19:20;;;;;;;4.82;3.75;;;24.70;55.20;;;;;;6123301;28;81840;-65
2023/09/04 14:22:21;;;;;;;6.07;4.10;;;24.70;55.10;;;;;;6124009;28;80940;-57
2023/09/04 14:25:22;;;;;;;9.70;4.53;;;24.70;55.10;;;;;;6126806;28;80550;-59
2023/09/04 14:28:22;;;;;;;5.45;4.35;;;24.60;55.20;;;;;;6127153;28;80526;-57
2023/09/04 14:31:23;;;;;;;7.07;4.63;;;24.60;55.20;;;;;;6124154;28;82989;-58
2023/09/04 14:34:23;;;;;;;5.70;4.03;;;24.60;55.20;;;;;;6117124;28;81413;-57
2023/09/04 14:37:24;;;;;;;8.60;4.00;;;24.60;55.30;;;;;;6105433;28;82267;-57
2023/09/04 14:40:28;;;;;;;8.23;4.03;;;24.60;55.40;;;;;;6058801;28;86362;-62
2023/09/04 14:43:28;;;;;;;6.80;3.97;;;24.60;55.30;;;;;;6126360;28;82109;-61
2023/09/04 14:46:30;;;;;;;10.23;4.07;;;24.70;55.40;;;;;;6128689;28;82017;-61
2023/09/04 14:49:31;;;;;;;10.02;4.25;;;24.70;55.40;;;;;;6122229;28;81187;-61
2023/09/04 14:52:31;;;;;;;7.85;4.20;;;24.70;55.70;;;;;;6124473;28;80519;-59
2023/09/04 14:55:32;;;;;;;7.53;3.67;;;24.70;55.40;;;;;;6124155;28;80979;-61
2023/09/04 14:58:32;;;;;;;7.85;4.25;;;24.70;55.40;;;;;;6123684;28;82669;-62
2023/09/04 15:01:33;;;;;;;4.63;3.63;;;24.60;55.40;;;;;;6125301;28;80919;-63
2023/09/04 15:04:33;;;;;;;6.70;3.92;;;24.60;56.20;;;;;;6126939;28;81841;-64
2023/09/04 15:07:34;;;;;;;5.40;3.97;;;24.60;55.20;;;;;;6126318;28;81110;-64
2023/09/04 15:10:34;;;;;;;10.15;4.88;;;24.60;55.10;;;;;;6122276;28;81551;-63
2023/09/04 15:13:35;;;;;;;11.70;4.85;;;24.60;54.50;;;;;;6122763;28;80191;-63
2023/09/04 15:16:35;;;;;;;6.90;4.85;;;24.60;54.70;;;;;;6134303;28;85061;-64
2023/09/04 15:19:36;;;;;;;14.82;4.10;;;24.60;54.70;;;;;;6124238;28;80235;-62
2023/09/04 15:22:36;;;;;;;5.57;4.45;;;24.60;54.80;;;;;;6118710;28;83536;-60
2023/09/04 15:25:38;;;;;;;5.25;4.07;;;24.60;54.80;;;;;;6119312;28;81052;-63
2023/09/04 15:28:38;;;;;;;8.98;4.80;;;24.60;54.70;;;;;;6122182;28;82121;-61
2023/09/04 15:31:39;;;;;;;10.93;4.70;;;24.50;54.50;;;;;;6125946;28;81932;-64
2023/09/04 15:34:39;;;;;;;6.30;4.50;;;24.50;54.50;;;;;;6123043;28;80767;-61
2023/09/04 15:37:40;;;;;;;6.43;4.30;;;24.50;54.80;;;;;;6121616;28;81196;-63